Date,TemperatureHighF,TemperatureAvgF,TemperatureLowF,DewpointHighF,DewpointAvgF,DewpointLowF,HumidityHigh,HumidityAvg,HumidityLow,PressureMaxIn,PressureMinIn,WindSpeedMaxMPH,WindSpeedAvgMPH,GustSpeedMaxMPH,PrecipitationSumIn
2013-2-1,29.9,19.2,7.7,15.3,7.5,-0.6,74,61,48,30.43,30.10,12,3,12,0.00
2013-2-2,49.0,37.5,26.5,34.7,26.2,15.1,75,64,53,30.18,30.04,10,2,10,0.00
2013-2-3,50.0,41.1,32.9,31.6,24.8,16.5,75,54,31,30.25,29.83,11,3,11,0.00
2013-2-4,47.5,39.3,25.4,32.0,27.3,20.3,84,63,48,29.97,29.77,12,3,12,0.00
2013-2-5,59.6,39.6,24.8,34.8,27.6,20.4,87,66,36,30.08,29.87,11,2,11,0.00
2013-2-6,63.2,48.4,31.3,41.0,33.9,23.8,80,59,39,30.08,29.86,17,5,17,0.00
2013-2-7,51.5,43.8,32.9,45.9,38.6,27.6,92,82,63,30.18,29.85,12,3,12,0.87
2013-2-8,46.4,34.8,30.1,31.6,28.0,25.9,87,77,54,30.31,30.17,12,3,12,0.00
2013-2-9,50.0,38.0,29.9,37.3,31.2,26.2,89,78,54,30.21,29.74,15,7,15,0.04
2013-2-10,54.0,45.6,37.4,46.6,34.9,24.2,93,68,44,29.88,29.45,24,8,50,0.03
2013-2-11,50.8,39.2,30.4,28.0,24.6,20.7,73,57,38,30.14,29.88,14,2,16,0.00
2013-2-12,44.5,34.9,25.6,29.4,24.5,20.0,85,67,48,30.14,29.94,5,0,6,0.00
2013-2-13,58.5,42.9,28.8,29.9,25.7,22.4,78,53,29,29.94,29.79,12,2,14,0.00
2013-2-14,51.8,43.7,35.1,32.3,27.4,22.1,72,53,39,30.16,29.82,13,2,14,0.00
2013-2-15,40.5,31.6,22.5,27.4,16.8,4.1,88,56,28,30.36,30.16,16,3,17,0.00
2013-2-16,37.8,30.1,19.3,23.9,20.5,15.1,88,69,53,30.29,30.05,14,2,16,0.02
2013-2-17,58.9,44.6,28.1,34.7,28.1,20.3,76,54,39,30.05,29.67,18,5,19,0.00
2013-2-18,57.6,44.6,29.2,47.9,32.8,17.6,86,64,44,30.06,29.54,23,8,25,0.05
2013-2-19,37.6,28.2,23.0,17.8,10.0,1.1,73,49,23,30.34,30.06,14,3,15,0.00
2013-2-20,25.4,21.5,16.2,14.7,8.7,2.1,68,58,44,30.37,30.17,15,4,16,0.00
2013-2-21,26.6,23.9,21.4,24.7,19.9,14.1,92,85,68,30.18,29.75,25,6,27,0.00
2013-2-22,35.8,26.1,17.8,24.6,19.7,12.7,92,77,55,30.06,29.77,10,1,11,0.13
2013-2-23,41.8,26.6,12.4,23.4,16.8,8.8,87,69,44,30.06,29.93,9,1,10,0.00
2013-2-24,50.4,34.5,18.7,28.4,23.2,14.6,88,65,40,30.02,29.90,14,3,15,0.00
2013-2-25,38.9,34.6,31.1,32.8,27.9,24.3,93,77,63,29.96,29.66,17,4,18,0.06
2013-2-26,33.8,32.6,31.3,32.0,30.5,29.2,94,92,87,29.84,29.56,13,1,14,0.00
2013-2-27,36.4,32.3,29.2,29.8,27.8,25.3,93,84,70,30.03,29.82,6,0,7,0.00
2013-2-28,36.4,31.4,28.4,28.4,26.1,23.8,85,80,70,30.18,30.02,8,1,8,0.02